createdAt,value
2019-06-10T00:02:21.801Z,15.57
2019-06-10T00:04:51.192Z,15.50
2019-06-10T00:07:21.083Z,15.57
2019-06-10T00:09:51.229Z,15.59
2019-06-10T00:12:21.051Z,15.55
2019-06-10T00:14:51.185Z,15.58
2019-06-10T00:17:21.344Z,15.56
2019-06-10T00:19:51.267Z,15.53
2019-06-10T00:22:21.552Z,15.55
2019-06-10T00:24:52.247Z,15.60
2019-06-10T00:27:21.849Z,15.49
2019-06-10T00:29:51.363Z,15.51
2019-06-10T00:32:21.567Z,15.46
2019-06-10T00:34:51.097Z,15.53
2019-06-10T00:37:21.235Z,15.61
2019-06-10T00:39:51.355Z,15.63
2019-06-10T00:42:21.340Z,15.60
2019-06-10T00:44:51.108Z,15.50
2019-06-10T00:47:21.181Z,15.45
2019-06-10T00:49:51.426Z,15.39
2019-06-10T00:52:21.807Z,15.22
2019-06-10T00:54:51.904Z,15.26
2019-06-10T00:57:21.438Z,15.29
2019-06-10T00:59:50.947Z,15.40
2019-06-10T01:02:21.337Z,15.33
2019-06-10T01:04:53.093Z,15.20
2019-06-10T01:07:22.514Z,15.20
2019-06-10T01:09:51.963Z,15.18
2019-06-10T01:12:21.397Z,15.02
2019-06-10T01:14:51.693Z,15.13
2019-06-10T01:17:21.460Z,15.10
2019-06-10T01:19:50.985Z,15.05
2019-06-10T01:22:21.294Z,15.02
2019-06-10T01:24:51.150Z,14.93
2019-06-10T01:27:21.191Z,15.08
2019-06-10T01:29:51.186Z,15.09
2019-06-10T01:32:21.670Z,15.19
2019-06-10T01:34:51.258Z,15.19
2019-06-10T01:37:21.756Z,15.11
2019-06-10T01:39:51.641Z,15.09
2019-06-10T01:42:21.598Z,15.21
2019-06-10T01:44:51.140Z,15.13
2019-06-10T01:47:21.595Z,15.04
2019-06-10T01:49:51.754Z,14.93
2019-06-10T01:52:21.370Z,14.81
2019-06-10T01:54:51.512Z,14.92
2019-06-10T01:57:21.965Z,14.95
2019-06-10T01:59:51.588Z,14.84
2019-06-10T02:02:24.443Z,14.86
2019-06-10T02:08:35.738Z,14.89
2019-06-10T02:11:05.258Z,14.79
2019-06-10T02:13:34.582Z,14.84
2019-06-10T02:16:04.580Z,14.82
2019-06-10T02:18:33.973Z,14.80
2019-06-10T02:21:03.948Z,14.69
2019-06-10T02:23:34.330Z,14.69
2019-06-10T02:26:03.778Z,14.78
2019-06-10T02:28:33.188Z,14.74
2019-06-10T02:31:03.853Z,14.81
2019-06-10T02:33:36.601Z,14.92
2019-06-10T02:36:05.009Z,15.02
2019-06-10T02:38:39.269Z,15.11
2019-06-10T02:41:05.717Z,15.01
2019-06-10T02:43:37.741Z,15.11
2019-06-10T02:46:07.467Z,15.15
2019-06-10T02:48:36.823Z,15.07
2019-06-10T02:51:08.559Z,15.14
2019-06-10T02:53:38.182Z,14.93
2019-06-10T02:56:08.636Z,15.06
2019-06-10T02:58:40.075Z,15.09
2019-06-10T03:01:09.661Z,15.10
2019-06-10T03:03:44.321Z,15.10
2019-06-10T03:06:13.686Z,15.16
2019-06-10T03:08:43.662Z,15.23
2019-06-10T03:11:14.160Z,15.11
2019-06-10T03:13:43.869Z,15.16
2019-06-10T03:16:47.784Z,15.14
2019-06-10T03:19:37.036Z,15.19
2019-06-10T03:21:52.043Z,15.11
2019-06-10T03:24:22.395Z,15.14
2019-06-10T03:26:52.349Z,15.14
2019-06-10T03:29:23.734Z,14.96
2019-06-10T03:31:55.361Z,15.10
2019-06-10T03:34:33.546Z,15.13
2019-06-10T03:36:55.903Z,15.10
2019-06-10T03:39:28.428Z,15.16
2019-06-10T03:41:57.001Z,15.10
2019-06-10T03:44:27.127Z,15.04
2019-06-10T03:46:57.852Z,14.93
2019-06-10T03:49:28.776Z,14.91
2019-06-10T03:52:19.304Z,14.93
2019-06-10T03:54:52.467Z,14.97
2019-06-10T03:57:25.664Z,14.94
2019-06-10T03:59:55.228Z,15.00
2019-06-10T04:02:25.587Z,15.01
2019-06-10T04:04:55.837Z,15.04
2019-06-10T04:07:28.275Z,14.98
2019-06-10T04:09:56.363Z,14.96
2019-06-10T04:12:27.526Z,15.01
2019-06-10T04:14:56.933Z,15.08
2019-06-10T04:17:27.343Z,14.99
2019-06-10T04:20:09.365Z,14.97
2019-06-10T04:22:28.751Z,14.93
2019-06-10T04:24:58.581Z,14.87
2019-06-10T04:27:28.496Z,14.97
2019-06-10T04:29:58.339Z,14.90
2019-06-10T04:32:43.983Z,15.00
2019-06-10T04:35:14.077Z,15.05
2019-06-10T04:37:43.578Z,15.12
2019-06-10T04:40:13.600Z,15.14
2019-06-10T04:42:43.620Z,15.30
2019-06-10T04:45:13.490Z,15.37
2019-06-10T04:47:43.357Z,15.48
2019-06-10T04:50:24.911Z,15.49
2019-06-10T04:52:46.014Z,15.47
2019-06-10T04:55:15.420Z,15.20
2019-06-10T04:57:44.826Z,15.11
2019-06-10T05:00:14.959Z,15.11
2019-06-10T05:02:44.445Z,15.12
2019-06-10T05:08:43.339Z,15.37
2019-06-10T05:11:13.048Z,15.65
2019-06-10T05:13:43.189Z,16.17
2019-06-10T05:16:12.906Z,16.50
2019-06-10T05:18:42.633Z,16.56
2019-06-10T05:21:13.037Z,15.98
2019-06-10T05:23:43.207Z,16.48
2019-06-10T05:26:13.436Z,16.65
2019-06-10T05:28:43.411Z,16.67
2019-06-10T05:31:13.334Z,16.74
2019-06-10T05:33:42.861Z,16.92
2019-06-10T05:36:13.271Z,16.98
2019-06-10T05:38:43.673Z,17.28
2019-06-10T05:41:13.566Z,17.31
2019-06-10T05:43:43.251Z,17.81
2019-06-10T05:46:13.646Z,17.84
2019-06-10T05:48:43.832Z,18.13
2019-06-10T05:51:13.628Z,18.34
2019-06-10T05:53:45.768Z,18.27
2019-06-10T05:56:14.401Z,18.16
2019-06-10T05:58:43.871Z,18.16
2019-06-10T06:01:13.463Z,18.33
2019-06-10T06:03:43.957Z,18.47
2019-06-10T06:06:13.634Z,18.34
2019-06-10T06:09:04.828Z,18.18
2019-06-10T06:11:35.350Z,17.98
2019-06-10T06:14:06.446Z,17.98
2019-06-10T07:17:45.461Z,19.73
2019-06-10T07:20:19.660Z,19.42
2019-06-10T07:22:49.099Z,19.90
2019-06-10T07:25:18.617Z,20.11
2019-06-10T07:27:47.977Z,20.16
2019-06-10T07:30:23.526Z,19.97
2019-06-10T07:32:52.945Z,20.29
2019-06-10T07:35:25.464Z,20.50
2019-06-10T07:37:55.367Z,20.49
2019-06-10T07:40:25.104Z,20.83
2019-06-10T07:42:54.404Z,21.05
2019-06-10T07:45:24.085Z,21.23
2019-06-10T07:47:54.041Z,21.13
2019-06-10T07:50:23.506Z,21.57
2019-06-10T07:52:53.033Z,21.53
2019-06-10T07:55:22.423Z,21.42
2019-06-10T07:57:53.315Z,21.15
2019-06-10T08:00:24.097Z,21.37
2019-06-10T08:02:53.422Z,21.32
2019-06-10T08:05:23.518Z,21.82
2019-06-10T08:07:54.783Z,22.71
2019-06-10T08:10:25.690Z,23.08
2019-06-10T08:12:55.466Z,23.08
2019-06-10T08:15:24.823Z,22.92
2019-06-10T08:17:56.080Z,23.34
2019-06-10T08:20:48.078Z,22.86
2019-06-10T08:23:19.400Z,22.86
2019-06-10T08:25:56.602Z,23.13
2019-06-10T08:28:22.927Z,24.08
2019-06-10T08:30:53.149Z,24.45
2019-06-10T08:33:23.008Z,24.53
2019-06-10T08:35:59.531Z,24.34
2019-06-10T08:38:23.371Z,24.56
2019-06-10T08:40:52.670Z,23.85
2019-06-10T08:43:22.600Z,23.74
2019-06-10T08:45:52.893Z,23.77
2019-06-10T08:48:22.864Z,24.15
2019-06-10T08:50:53.072Z,24.19
2019-06-10T08:53:22.921Z,24.18
2019-06-10T08:55:53.494Z,24.19
2019-06-10T08:58:23.243Z,23.98
2019-06-10T09:00:53.766Z,24.04
2019-06-10T09:03:23.450Z,23.81
2019-06-10T09:05:54.418Z,24.04
2019-06-10T09:08:23.874Z,23.66
2019-06-10T09:10:55.008Z,24.34
2019-06-10T09:13:24.623Z,24.41
2019-06-10T09:16:10.055Z,24.58
2019-06-10T09:18:24.917Z,24.18
2019-06-10T09:20:56.132Z,24.17
2019-06-10T09:23:25.794Z,24.33
2019-06-10T09:25:57.708Z,24.01
2019-06-10T09:28:27.215Z,23.80
2019-06-10T09:30:59.404Z,23.64
2019-06-10T09:33:28.004Z,23.85
2019-06-10T09:35:57.747Z,24.23
2019-06-10T09:38:28.117Z,24.38
2019-06-10T09:41:01.834Z,25.11
2019-06-10T09:43:28.287Z,25.07
2019-06-10T09:45:57.659Z,25.34
2019-06-10T09:48:27.232Z,25.14
2019-06-10T09:50:58.532Z,25.22
2019-06-10T09:53:41.466Z,24.31
2019-06-10T09:56:05.811Z,24.88
2019-06-10T09:58:39.102Z,24.88
2019-06-10T10:01:13.406Z,24.65
2019-06-10T10:03:47.749Z,25.29
2019-06-10T10:06:18.272Z,24.82
2019-06-10T10:08:58.422Z,24.93
2019-06-10T10:11:28.484Z,25.06
2019-06-10T10:13:59.582Z,25.43
2019-06-10T10:16:33.891Z,24.86
2019-06-10T10:19:06.032Z,25.15
2019-06-10T10:21:41.229Z,24.76
2019-06-10T10:24:15.404Z,24.93
2019-06-10T10:26:50.922Z,25.14
2019-06-10T10:29:23.404Z,24.97
2019-06-10T10:32:05.016Z,24.78
2019-06-10T10:34:35.542Z,24.81
2019-06-10T10:37:12.247Z,24.94
2019-06-10T10:39:44.684Z,25.17
2019-06-10T10:42:18.051Z,25.33
2019-06-10T10:44:53.018Z,25.04
2019-06-10T10:47:27.658Z,25.23
2019-06-10T10:49:57.662Z,25.27
2019-06-10T10:52:33.047Z,25.17
2019-06-10T10:55:06.820Z,24.64
2019-06-10T10:57:38.945Z,24.40
2019-06-10T11:00:12.487Z,24.66
2019-06-10T11:02:51.466Z,24.93
2019-06-10T11:05:46.042Z,24.69
2019-06-10T11:08:16.898Z,25.28
2019-06-10T11:10:49.549Z,25.78
2019-06-10T11:13:25.532Z,26.02
2019-06-10T11:15:58.417Z,26.34
2019-06-10T11:18:29.990Z,26.43
2019-06-10T11:21:05.166Z,26.42
2019-06-10T11:23:38.025Z,26.44
2019-06-10T11:26:12.179Z,26.56
2019-06-10T11:29:02.952Z,26.70
2019-06-10T11:31:35.555Z,26.15
2019-06-10T11:34:10.109Z,26.25
2019-06-10T11:36:42.414Z,26.12
2019-06-10T11:39:13.319Z,26.51
2019-06-10T11:41:46.614Z,26.31
2019-06-10T11:44:28.411Z,26.65
2019-06-10T11:46:59.729Z,26.10
2019-06-10T11:49:32.971Z,25.80
2019-06-10T11:52:05.217Z,26.13
2019-06-10T11:54:53.649Z,26.39
2019-06-10T11:57:12.531Z,26.73
2019-06-10T11:59:48.018Z,26.54
2019-06-10T12:02:25.250Z,26.37
2019-06-10T12:05:00.553Z,26.32
2019-06-10T12:07:33.199Z,26.39
2019-06-10T12:10:06.845Z,26.70
2019-06-10T12:12:43.195Z,27.00
2019-06-10T12:15:15.462Z,27.18
2019-06-10T12:17:55.613Z,27.05
2019-06-10T12:20:28.385Z,26.82
2019-06-10T12:23:04.332Z,27.24
2019-06-10T12:25:39.281Z,27.37
2019-06-10T12:28:08.553Z,27.29
2019-06-10T12:30:42.324Z,27.07
2019-06-10T12:33:21.339Z,26.95
2019-06-10T12:35:48.434Z,26.87
2019-06-10T12:38:22.769Z,27.15
2019-06-10T12:40:58.960Z,27.63
2019-06-10T12:43:32.776Z,27.16
2019-06-10T12:46:07.128Z,26.89
2019-06-10T12:48:39.113Z,27.17
2019-06-10T12:51:14.867Z,27.12
2019-06-10T12:53:50.187Z,27.24
2019-06-10T12:56:22.885Z,27.62
2019-06-10T12:58:54.598Z,27.53
2019-06-10T13:01:25.139Z,27.56
2019-06-10T13:03:57.535Z,27.50
2019-06-10T13:06:35.258Z,27.36
2019-06-10T13:09:08.264Z,27.59
2019-06-10T13:11:39.333Z,27.63
2019-06-10T13:14:13.064Z,27.44
2019-06-10T13:16:48.505Z,27.33
2019-06-10T13:19:23.009Z,27.21
2019-06-10T13:21:59.580Z,27.02
2019-06-10T13:24:33.882Z,27.49
2019-06-10T13:27:25.683Z,27.98
2019-06-10T13:29:57.853Z,28.36
2019-06-10T13:32:28.725Z,27.89
2019-06-10T13:35:04.450Z,28.14
2019-06-10T13:37:35.231Z,28.00
2019-06-10T13:40:10.717Z,27.95
2019-06-10T13:42:42.675Z,28.09
2019-06-10T13:45:16.132Z,28.87
2019-06-10T13:47:46.924Z,28.70
2019-06-10T13:50:22.076Z,29.42
2019-06-10T13:52:55.585Z,29.73
2019-06-10T13:55:27.948Z,30.11
2019-06-10T13:57:57.189Z,30.60
2019-06-10T14:00:40.649Z,30.05
2019-06-10T14:02:57.657Z,30.19
2019-06-10T14:05:26.887Z,29.94
2019-06-10T14:07:56.090Z,28.94
2019-06-10T14:10:25.851Z,28.82
2019-06-10T14:12:55.080Z,28.72
2019-06-10T14:15:24.442Z,29.10
2019-06-10T14:17:54.093Z,28.98
2019-06-10T14:20:23.426Z,28.67
2019-06-10T14:22:53.036Z,27.93
2019-06-10T14:25:23.554Z,27.21
2019-06-10T14:27:53.361Z,27.01
2019-06-10T14:30:26.767Z,27.07
2019-06-10T14:32:55.984Z,27.16
2019-06-10T14:35:26.913Z,27.06
2019-06-10T14:37:56.755Z,26.73
2019-06-10T14:40:26.112Z,26.71
2019-06-10T14:42:55.468Z,25.82
2019-06-10T14:45:32.524Z,26.01
2019-06-10T14:48:02.869Z,25.96
2019-06-10T14:50:32.780Z,25.73
2019-06-10T14:53:02.363Z,25.46
2019-06-10T14:55:33.988Z,25.73
2019-06-10T14:58:03.758Z,25.47
2019-06-10T15:00:33.466Z,25.86
2019-06-10T15:03:05.687Z,26.03
2019-06-10T15:05:34.519Z,25.70
2019-06-10T15:08:03.941Z,25.78
2019-06-10T15:10:33.272Z,25.77
2019-06-10T15:13:03.435Z,26.10
2019-06-10T15:15:33.087Z,26.84
2019-06-10T15:18:03.018Z,26.28
2019-06-10T15:20:33.515Z,26.31
2019-06-10T15:23:03.764Z,26.38
2019-06-10T15:25:49.138Z,26.78
2019-06-10T15:28:04.600Z,27.07
2019-06-10T15:30:34.996Z,26.92
2019-06-10T15:33:04.306Z,26.44
2019-06-10T15:35:33.756Z,27.33
2019-06-10T15:38:18.122Z,27.63
2019-06-10T15:41:12.990Z,28.71
2019-06-10T15:43:48.034Z,29.04
2019-06-10T15:46:19.544Z,28.64
2019-06-10T15:48:53.895Z,28.43
2019-06-10T15:51:25.769Z,30.12
2019-06-10T15:53:55.391Z,30.57
2019-06-10T15:56:45.656Z,30.83
2019-06-10T15:59:21.387Z,31.15
2019-06-10T16:02:09.447Z,31.60
2019-06-10T16:04:43.389Z,30.91
2019-06-10T16:07:25.462Z,29.43
2019-06-10T16:10:27.946Z,28.00
2019-06-10T16:12:58.070Z,27.14
2019-06-10T16:15:32.893Z,26.89
2019-06-10T16:18:04.929Z,26.91
2019-06-10T16:20:37.976Z,26.32
2019-06-10T16:23:13.852Z,26.75
2019-06-10T16:25:46.235Z,26.75
2019-06-10T16:36:21.855Z,26.68
2019-06-10T16:38:55.246Z,26.10
2019-06-10T16:41:47.463Z,26.03
2019-06-10T16:44:27.758Z,25.68
2019-06-10T16:47:19.180Z,25.60
2019-06-10T16:49:52.152Z,25.02
2019-06-10T16:52:27.509Z,25.22
2019-06-10T16:54:58.342Z,25.01
2019-06-10T16:57:27.889Z,24.48
2019-06-10T16:59:59.836Z,24.61
2019-06-10T17:02:33.023Z,24.71
2019-06-10T17:05:03.174Z,24.81
2019-06-10T17:07:33.726Z,24.45
2019-06-10T17:10:04.147Z,24.16
2019-06-10T17:12:35.046Z,24.20
2019-06-10T17:15:14.616Z,24.11
2019-06-10T17:17:43.984Z,24.05
2019-06-10T17:20:14.109Z,24.00
2019-06-10T17:22:44.968Z,24.04
2019-06-10T17:25:14.637Z,23.84
2019-06-10T17:27:43.897Z,23.69
2019-06-10T17:30:13.385Z,23.69
2019-06-10T17:32:44.180Z,23.46
2019-06-10T17:35:13.621Z,23.37
2019-06-10T17:37:43.238Z,23.30
2019-06-10T17:40:13.020Z,23.35
2019-06-10T17:42:42.862Z,22.53
2019-06-10T17:45:12.794Z,21.92
2019-06-10T17:47:42.793Z,21.60
2019-06-10T17:50:12.627Z,21.31
2019-06-10T17:52:42.704Z,21.10
2019-06-10T17:55:12.595Z,20.82
2019-06-10T17:57:42.983Z,20.81
2019-06-10T18:00:14.873Z,20.83
2019-06-10T18:02:59.454Z,20.64
2019-06-10T18:05:29.326Z,20.62
2019-06-10T18:07:58.844Z,20.47
2019-06-10T18:10:28.136Z,20.55
2019-06-10T18:13:10.172Z,20.57
2019-06-10T18:15:28.344Z,20.56
2019-06-10T18:17:58.047Z,20.55
2019-06-10T18:20:27.254Z,20.49
2019-06-10T18:22:57.648Z,20.34
2019-06-10T18:25:26.844Z,20.19
2019-06-10T18:27:56.359Z,19.75
2019-06-10T18:30:27.153Z,19.78
2019-06-10T18:32:56.614Z,19.78
2019-06-10T18:35:27.782Z,19.76
2019-06-10T18:38:02.320Z,19.57
2019-06-10T18:40:33.554Z,19.39
2019-06-10T18:43:03.185Z,19.35
2019-06-10T18:45:37.810Z,19.28
2019-06-10T18:48:06.893Z,19.25
2019-06-10T18:50:38.415Z,19.21
2019-06-10T18:53:12.816Z,19.19
2019-06-10T18:55:43.602Z,19.19
2019-06-10T18:58:13.468Z,19.22
2019-06-10T19:00:58.789Z,19.17
2019-06-10T19:03:16.776Z,19.17
2019-06-10T19:05:46.717Z,19.18
2019-06-10T19:08:17.025Z,19.08
2019-06-10T19:10:47.338Z,19.08
2019-06-10T19:13:18.615Z,19.00
2019-06-10T19:15:48.106Z,18.76
2019-06-10T19:18:17.833Z,18.67
2019-06-10T19:20:48.015Z,18.54
2019-06-10T19:23:18.023Z,18.41
2019-06-10T19:25:52.551Z,18.32
2019-06-10T19:28:24.403Z,18.28
2019-06-10T19:30:54.184Z,18.19
2019-06-10T19:33:24.467Z,18.16
2019-06-10T19:35:54.531Z,18.16
2019-06-10T19:38:25.586Z,18.11
2019-06-10T19:40:55.657Z,18.18
2019-06-10T19:43:26.443Z,18.13
2019-06-10T19:45:55.976Z,18.05
2019-06-10T19:48:25.800Z,18.16
2019-06-10T19:50:55.955Z,18.12
2019-06-10T19:53:25.686Z,18.14
2019-06-10T19:55:55.843Z,18.03
2019-06-10T19:58:25.823Z,17.97
2019-06-10T20:00:56.146Z,17.88
2019-06-10T20:03:25.863Z,17.85
2019-06-10T20:05:56.880Z,17.79
2019-06-10T20:08:26.995Z,17.77
2019-06-10T20:10:57.451Z,17.70
2019-06-10T20:13:36.451Z,17.67
2019-06-10T20:16:05.992Z,17.66
2019-06-10T20:18:36.240Z,17.54
2019-06-10T20:21:06.285Z,17.67
2019-06-10T20:23:37.387Z,17.62
2019-06-10T20:26:06.957Z,17.55
2019-06-10T20:28:38.923Z,17.39
2019-06-10T20:31:08.960Z,17.37
2019-06-10T20:33:39.879Z,17.33
2019-06-10T20:36:17.866Z,17.30
2019-06-10T20:38:45.359Z,17.32
2019-06-10T20:41:14.129Z,17.44
2019-06-10T20:43:44.393Z,17.45
2019-06-10T20:46:15.435Z,17.13
2019-06-10T20:48:47.770Z,17.44
2019-06-10T20:51:16.671Z,17.49
2019-06-10T20:53:53.315Z,17.62
2019-06-10T20:56:23.448Z,17.65
2019-06-10T20:58:53.045Z,17.65
2019-06-10T21:01:25.057Z,17.67
2019-06-10T21:03:56.248Z,17.59
2019-06-10T21:06:27.185Z,17.45
2019-06-10T21:08:56.560Z,17.35
2019-06-10T21:11:25.986Z,17.34
2019-06-10T21:13:55.986Z,17.43
2019-06-10T21:16:25.518Z,17.44
2019-06-10T21:18:55.853Z,17.33
2019-06-10T21:21:25.291Z,17.42
2019-06-10T21:23:54.613Z,17.42
2019-06-10T21:26:24.029Z,17.44
2019-06-10T21:28:55.181Z,17.39
2019-06-10T21:31:24.922Z,17.35
2019-06-10T21:33:56.129Z,17.42
2019-06-10T21:36:25.534Z,17.34
2019-06-10T21:38:55.879Z,17.40
2019-06-10T21:41:26.341Z,17.41
2019-06-10T21:44:02.792Z,17.44
2019-06-10T21:46:37.456Z,17.42
2019-06-10T21:49:07.710Z,17.35
2019-06-10T21:51:39.006Z,17.30
2019-06-10T21:54:12.060Z,17.27
2019-06-10T21:56:47.081Z,17.21
2019-06-10T21:59:20.995Z,17.25
2019-06-10T22:01:55.457Z,17.29
2019-06-10T22:04:27.969Z,17.29
2019-06-10T22:06:59.116Z,17.31
2019-06-10T22:09:30.000Z,17.25
2019-06-10T22:12:02.899Z,17.15
2019-06-10T22:14:34.394Z,17.06
2019-06-10T22:17:07.610Z,17.07
2019-06-10T22:19:42.603Z,17.04
2019-06-10T22:22:14.439Z,17.01
2019-06-10T22:24:48.823Z,17.03
2019-06-10T22:27:22.715Z,17.00
2019-06-10T22:29:59.286Z,16.99
2019-06-10T22:32:33.098Z,16.93
2019-06-10T22:35:03.789Z,16.94
2019-06-10T22:37:36.399Z,16.95
2019-06-10T22:40:12.259Z,16.55
2019-06-10T22:42:49.329Z,16.95
2019-06-10T22:45:25.501Z,16.90
2019-06-10T22:48:02.760Z,16.86
2019-06-10T22:50:36.688Z,16.80
2019-06-10T22:53:23.013Z,16.85
2019-06-10T22:55:56.168Z,16.85
2019-06-10T22:58:28.248Z,16.93
2019-06-10T23:01:01.057Z,16.94
2019-06-10T23:03:35.299Z,16.95
2019-06-10T23:06:08.590Z,16.90
2019-06-10T23:08:44.369Z,16.95
2019-06-10T23:11:19.261Z,16.94
2019-06-10T23:13:53.353Z,16.86
2019-06-10T23:16:29.263Z,16.84
2019-06-10T23:19:23.269Z,16.89
2019-06-10T23:21:56.814Z,16.91
2019-06-10T23:24:28.452Z,16.89
2019-06-10T23:27:03.026Z,17.01
2019-06-10T23:29:36.048Z,16.97
2019-06-10T23:32:07.734Z,16.97
2019-06-10T23:34:38.307Z,16.90
2019-06-10T23:37:09.073Z,16.84
2019-06-10T23:39:39.464Z,16.70
2019-06-10T23:42:08.744Z,16.67
2019-06-10T23:44:37.966Z,16.71
2019-06-10T23:47:07.525Z,16.80
2019-06-10T23:49:36.744Z,16.75
2019-06-10T23:52:05.989Z,16.75
2019-06-10T23:54:35.218Z,16.74
2019-06-10T23:57:05.927Z,16.67
2019-06-10T23:59:35.453Z,16.63
